sensor_id;sensor_type;location;lat;lon;timestamp;P1;durP1;ratioP1;P2;durP2;ratioP2
53040;SDS011;39326;42.650;23.248;2022-09-27T00:02:21;14.67;;;13.57;;
53040;SDS011;39326;42.650;23.248;2022-09-27T00:04:46;13.50;;;12.40;;
53040;SDS011;39326;42.650;23.248;2022-09-27T00:07:12;14.43;;;13.23;;
53040;SDS011;39326;42.650;23.248;2022-09-27T00:09:37;14.37;;;13.17;;
53040;SDS011;39326;42.650;23.248;2022-09-27T00:12:03;13.90;;;12.68;;
53040;SDS011;39326;42.650;23.248;2022-09-27T00:14:28;12.13;;;11.13;;
53040;SDS011;39326;42.650;23.248;2022-09-27T00:16:54;11.93;;;11.03;;
53040;SDS011;39326;42.650;23.248;2022-09-27T00:19:20;12.43;;;11.43;;
53040;SDS011;39326;42.650;23.248;2022-09-27T00:21:48;11.80;;;10.90;;
53040;SDS011;39326;42.650;23.248;2022-09-27T00:24:15;12.30;;;11.20;;
53040;SDS011;39326;42.650;23.248;2022-09-27T00:26:43;11.75;;;10.77;;
53040;SDS011;39326;42.650;23.248;2022-09-27T00:29:11;13.10;;;12.03;;
53040;SDS011;39326;42.650;23.248;2022-09-27T00:31:37;11.83;;;10.93;;
53040;SDS011;39326;42.650;23.248;2022-09-27T00:34:03;13.73;;;12.47;;
53040;SDS011;39326;42.650;23.248;2022-09-27T00:36:29;11.40;;;10.17;;
53040;SDS011;39326;42.650;23.248;2022-09-27T00:38:56;12.63;;;11.52;;
53040;SDS011;39326;42.650;23.248;2022-09-27T00:43:54;11.97;;;11.07;;
53040;SDS011;39326;42.650;23.248;2022-09-27T00:46:29;11.60;;;10.70;;
53040;SDS011;39326;42.650;23.248;2022-09-27T00:51:29;10.50;;;9.70;;
53040;SDS011;39326;42.650;23.248;2022-09-27T00:53:57;10.77;;;9.77;;
53040;SDS011;39326;42.650;23.248;2022-09-27T00:56:25;9.70;;;8.97;;
53040;SDS011;39326;42.650;23.248;2022-09-27T00:59:13;9.37;;;8.67;;
53040;SDS011;39326;42.650;23.248;2022-09-27T01:01:43;8.90;;;8.17;;
53040;SDS011;39326;42.650;23.248;2022-09-27T01:04:09;9.87;;;9.17;;
53040;SDS011;39326;42.650;23.248;2022-09-27T01:06:38;10.23;;;9.43;;
53040;SDS011;39326;42.650;23.248;2022-09-27T01:09:04;8.90;;;8.10;;
53040;SDS011;39326;42.650;23.248;2022-09-27T01:19:57;8.10;;;7.37;;
53040;SDS011;39326;42.650;23.248;2022-09-27T01:36:10;9.40;;;8.70;;
53040;SDS011;39326;42.650;23.248;2022-09-27T01:43:46;7.67;;;7.07;;
53040;SDS011;39326;42.650;23.248;2022-09-27T01:46:24;7.40;;;6.80;;
53040;SDS011;39326;42.650;23.248;2022-09-27T01:48:54;8.50;;;7.70;;
53040;SDS011;39326;42.650;23.248;2022-09-27T01:51:24;7.93;;;7.33;;
53040;SDS011;39326;42.650;23.248;2022-09-27T01:53:56;7.93;;;7.33;;
53040;SDS011;39326;42.650;23.248;2022-09-27T01:56:29;7.00;;;6.50;;
53040;SDS011;39326;42.650;23.248;2022-09-27T01:59:25;7.03;;;6.43;;
53040;SDS011;39326;42.650;23.248;2022-09-27T02:01:56;6.83;;;6.33;;
53040;SDS011;39326;42.650;23.248;2022-09-27T02:04:25;6.80;;;6.15;;
53040;SDS011;39326;42.650;23.248;2022-09-27T02:09:48;8.50;;;7.47;;
53040;SDS011;39326;42.650;23.248;2022-09-27T02:12:20;10.30;;;6.17;;
53040;SDS011;39326;42.650;23.248;2022-09-27T02:15:11;14.43;;;6.90;;
53040;SDS011;39326;42.650;23.248;2022-09-27T02:25:30;6.30;;;5.70;;
53040;SDS011;39326;42.650;23.248;2022-09-27T02:28:13;5.33;;;5.03;;
53040;SDS011;39326;42.650;23.248;2022-09-27T02:30:49;6.13;;;5.70;;
53040;SDS011;39326;42.650;23.248;2022-09-27T02:33:14;15.07;;;6.73;;
53040;SDS011;39326;42.650;23.248;2022-09-27T02:35:41;7.47;;;6.90;;
53040;SDS011;39326;42.650;23.248;2022-09-27T02:38:07;7.03;;;6.32;;
53040;SDS011;39326;42.650;23.248;2022-09-27T02:40:33;7.33;;;6.13;;
53040;SDS011;39326;42.650;23.248;2022-09-27T02:43:01;32.80;;;9.20;;
53040;SDS011;39326;42.650;23.248;2022-09-27T02:48:55;13.67;;;7.60;;
53040;SDS011;39326;42.650;23.248;2022-09-27T02:57:21;14.67;;;7.37;;
53040;SDS011;39326;42.650;23.248;2022-09-27T03:05:01;305.77;;;23.17;;
53040;SDS011;39326;42.650;23.248;2022-09-27T03:07:30;235.23;;;16.63;;
53040;SDS011;39326;42.650;23.248;2022-09-27T03:09:56;23.98;;;7.70;;
53040;SDS011;39326;42.650;23.248;2022-09-27T03:12:22;36.50;;;8.17;;
53040;SDS011;39326;42.650;23.248;2022-09-27T03:15:00;184.27;;;14.10;;
53040;SDS011;39326;42.650;23.248;2022-09-27T03:17:26;6.27;;;5.83;;
53040;SDS011;39326;42.650;23.248;2022-09-27T03:19:51;7.17;;;6.67;;
53040;SDS011;39326;42.650;23.248;2022-09-27T03:22:17;7.73;;;7.13;;
53040;SDS011;39326;42.650;23.248;2022-09-27T03:24:43;7.20;;;6.70;;
53040;SDS011;39326;42.650;23.248;2022-09-27T03:27:08;7.47;;;6.97;;
53040;SDS011;39326;42.650;23.248;2022-09-27T03:29:35;6.50;;;6.10;;
53040;SDS011;39326;42.650;23.248;2022-09-27T03:32:01;6.03;;;5.53;;
53040;SDS011;39326;42.650;23.248;2022-09-27T03:34:27;6.40;;;5.80;;
53040;SDS011;39326;42.650;23.248;2022-09-27T03:36:53;4.97;;;4.57;;
53040;SDS011;39326;42.650;23.248;2022-09-27T03:39:18;4.33;;;4.03;;
53040;SDS011;39326;42.650;23.248;2022-09-27T03:41:44;5.33;;;4.93;;
53040;SDS011;39326;42.650;23.248;2022-09-27T03:44:09;171.10;;;15.47;;
53040;SDS011;39326;42.650;23.248;2022-09-27T03:46:34;152.47;;;15.07;;
53040;SDS011;39326;42.650;23.248;2022-09-27T03:49:00;57.47;;;11.60;;
53040;SDS011;39326;42.650;23.248;2022-09-27T03:51:25;852.47;;;44.83;;
53040;SDS011;39326;42.650;23.248;2022-09-27T03:53:51;282.17;;;19.27;;
53040;SDS011;39326;42.650;23.248;2022-09-27T03:56:17;125.10;;;14.27;;
53040;SDS011;39326;42.650;23.248;2022-09-27T03:58:42;55.93;;;11.20;;
53040;SDS011;39326;42.650;23.248;2022-09-27T04:01:08;7.63;;;6.97;;
53040;SDS011;39326;42.650;23.248;2022-09-27T04:03:34;7.73;;;7.23;;
53040;SDS011;39326;42.650;23.248;2022-09-27T04:06:00;6.35;;;5.95;;
53040;SDS011;39326;42.650;23.248;2022-09-27T04:08:26;6.07;;;5.57;;
53040;SDS011;39326;42.650;23.248;2022-09-27T04:10:52;5.97;;;5.57;;
53040;SDS011;39326;42.650;23.248;2022-09-27T04:13:17;8.00;;;7.30;;
53040;SDS011;39326;42.650;23.248;2022-09-27T04:15:43;10.43;;;8.17;;
53040;SDS011;39326;42.650;23.248;2022-09-27T04:18:09;60.10;;;11.03;;
53040;SDS011;39326;42.650;23.248;2022-09-27T04:20:34;9.43;;;8.70;;
53040;SDS011;39326;42.650;23.248;2022-09-27T04:23:00;9.97;;;8.93;;
53040;SDS011;39326;42.650;23.248;2022-09-27T04:25:26;9.70;;;9.00;;
53040;SDS011;39326;42.650;23.248;2022-09-27T04:27:51;10.13;;;9.27;;
53040;SDS011;39326;42.650;23.248;2022-09-27T04:30:19;8.90;;;8.10;;
53040;SDS011;39326;42.650;23.248;2022-09-27T04:32:45;8.70;;;8.10;;
53040;SDS011;39326;42.650;23.248;2022-09-27T04:35:11;8.77;;;8.17;;
53040;SDS011;39326;42.650;23.248;2022-09-27T04:37:56;7.77;;;7.27;;
53040;SDS011;39326;42.650;23.248;2022-09-27T04:40:22;7.80;;;7.20;;
53040;SDS011;39326;42.650;23.248;2022-09-27T04:42:48;7.93;;;7.33;;
53040;SDS011;39326;42.650;23.248;2022-09-27T04:45:14;9.83;;;9.03;;
53040;SDS011;39326;42.650;23.248;2022-09-27T04:47:46;10.90;;;9.77;;
53040;SDS011;39326;42.650;23.248;2022-09-27T04:50:12;149.63;;;17.63;;
53040;SDS011;39326;42.650;23.248;2022-09-27T04:52:38;61.27;;;14.30;;
53040;SDS011;39326;42.650;23.248;2022-09-27T04:55:05;61.23;;;14.27;;
53040;SDS011;39326;42.650;23.248;2022-09-27T04:57:32;10.07;;;9.23;;
53040;SDS011;39326;42.650;23.248;2022-09-27T04:59:57;8.73;;;8.13;;
53040;SDS011;39326;42.650;23.248;2022-09-27T05:02:24;9.00;;;8.30;;
53040;SDS011;39326;42.650;23.248;2022-09-27T05:04:51;6.75;;;6.25;;
53040;SDS011;39326;42.650;23.248;2022-09-27T05:07:17;8.27;;;6.50;;
53040;SDS011;39326;42.650;23.248;2022-09-27T05:09:43;4.43;;;4.10;;
53040;SDS011;39326;42.650;23.248;2022-09-27T05:12:09;3.70;;;3.40;;
53040;SDS011;39326;42.650;23.248;2022-09-27T05:14:35;3.80;;;3.50;;
53040;SDS011;39326;42.650;23.248;2022-09-27T05:17:01;2.90;;;2.70;;
53040;SDS011;39326;42.650;23.248;2022-09-27T05:19:26;3.47;;;3.17;;
53040;SDS011;39326;42.650;23.248;2022-09-27T05:21:52;3.25;;;3.05;;
53040;SDS011;39326;42.650;23.248;2022-09-27T05:24:17;4.33;;;3.40;;
53040;SDS011;39326;42.650;23.248;2022-09-27T05:26:43;3.80;;;3.60;;
53040;SDS011;39326;42.650;23.248;2022-09-27T05:29:10;5.87;;;5.47;;
53040;SDS011;39326;42.650;23.248;2022-09-27T05:31:36;2.90;;;2.70;;
53040;SDS011;39326;42.650;23.248;2022-09-27T05:34:01;8.20;;;7.57;;
53040;SDS011;39326;42.650;23.248;2022-09-27T05:36:27;13.80;;;12.80;;
53040;SDS011;39326;42.650;23.248;2022-09-27T05:38:52;27.03;;;14.50;;
53040;SDS011;39326;42.650;23.248;2022-09-27T05:41:18;15.60;;;14.40;;
53040;SDS011;39326;42.650;23.248;2022-09-27T05:43:44;17.80;;;16.30;;
53040;SDS011;39326;42.650;23.248;2022-09-27T05:46:10;15.40;;;14.13;;
53040;SDS011;39326;42.650;23.248;2022-09-27T05:48:36;18.43;;;16.50;;
53040;SDS011;39326;42.650;23.248;2022-09-27T05:51:01;63.27;;;18.20;;
53040;SDS011;39326;42.650;23.248;2022-09-27T05:53:27;21.67;;;18.63;;
53040;SDS011;39326;42.650;23.248;2022-09-27T05:55:53;18.27;;;16.88;;
53040;SDS011;39326;42.650;23.248;2022-09-27T05:58:18;11.60;;;10.80;;
53040;SDS011;39326;42.650;23.248;2022-09-27T06:00:44;9.30;;;8.60;;
53040;SDS011;39326;42.650;23.248;2022-09-27T06:03:10;16.20;;;15.00;;
53040;SDS011;39326;42.650;23.248;2022-09-27T06:05:38;13.10;;;12.10;;
53040;SDS011;39326;42.650;23.248;2022-09-27T06:08:06;15.07;;;13.77;;
53040;SDS011;39326;42.650;23.248;2022-09-27T06:10:33;14.43;;;13.33;;
53040;SDS011;39326;42.650;23.248;2022-09-27T06:12:59;22.57;;;15.27;;
53040;SDS011;39326;42.650;23.248;2022-09-27T06:15:27;870.33;;;64.83;;
53040;SDS011;39326;42.650;23.248;2022-09-27T06:17:53;120.43;;;24.37;;
53040;SDS011;39326;42.650;23.248;2022-09-27T06:20:19;75.93;;;20.10;;
53040;SDS011;39326;42.650;23.248;2022-09-27T06:22:44;17.30;;;15.87;;
53040;SDS011;39326;42.650;23.248;2022-09-27T06:25:10;16.30;;;15.00;;
53040;SDS011;39326;42.650;23.248;2022-09-27T06:27:36;17.13;;;15.83;;
53040;SDS011;39326;42.650;23.248;2022-09-27T06:30:02;16.30;;;15.00;;
53040;SDS011;39326;42.650;23.248;2022-09-27T06:32:28;14.83;;;13.73;;
53040;SDS011;39326;42.650;23.248;2022-09-27T06:34:53;15.97;;;14.83;;
53040;SDS011;39326;42.650;23.248;2022-09-27T06:37:19;16.50;;;15.10;;
53040;SDS011;39326;42.650;23.248;2022-09-27T06:39:44;15.23;;;13.97;;
53040;SDS011;39326;42.650;23.248;2022-09-27T06:42:10;16.67;;;15.40;;
53040;SDS011;39326;42.650;23.248;2022-09-27T06:44:35;18.57;;;17.17;;
53040;SDS011;39326;42.650;23.248;2022-09-27T06:47:00;13.60;;;12.63;;
53040;SDS011;39326;42.650;23.248;2022-09-27T06:49:26;15.17;;;13.77;;
53040;SDS011;39326;42.650;23.248;2022-09-27T06:51:52;13.65;;;12.63;;
53040;SDS011;39326;42.650;23.248;2022-09-27T06:54:18;11.77;;;10.80;;
53040;SDS011;39326;42.650;23.248;2022-09-27T06:56:47;11.83;;;10.83;;
53040;SDS011;39326;42.650;23.248;2022-09-27T06:59:12;10.27;;;9.30;;
53040;SDS011;39326;42.650;23.248;2022-09-27T07:02:13;9.90;;;9.20;;
53040;SDS011;39326;42.650;23.248;2022-09-27T07:04:39;12.03;;;11.07;;
53040;SDS011;39326;42.650;23.248;2022-09-27T07:07:04;8.83;;;8.23;;
53040;SDS011;39326;42.650;23.248;2022-09-27T07:09:30;7.80;;;7.30;;
53040;SDS011;39326;42.650;23.248;2022-09-27T07:11:55;8.67;;;7.87;;
53040;SDS011;39326;42.650;23.248;2022-09-27T07:14:21;7.70;;;7.18;;
53040;SDS011;39326;42.650;23.248;2022-09-27T07:16:47;6.93;;;6.33;;
53040;SDS011;39326;42.650;23.248;2022-09-27T07:19:12;6.57;;;6.07;;
53040;SDS011;39326;42.650;23.248;2022-09-27T07:21:39;5.47;;;5.07;;
53040;SDS011;39326;42.650;23.248;2022-09-27T07:24:04;2.40;;;2.30;;
53040;SDS011;39326;42.650;23.248;2022-09-27T07:26:30;3.37;;;3.17;;
53040;SDS011;39326;42.650;23.248;2022-09-27T07:28:55;9.30;;;8.50;;
53040;SDS011;39326;42.650;23.248;2022-09-27T07:31:21;14.00;;;12.03;;
53040;SDS011;39326;42.650;23.248;2022-09-27T07:33:48;207.27;;;29.38;;
53040;SDS011;39326;42.650;23.248;2022-09-27T07:36:13;279.50;;;30.97;;
53040;SDS011;39326;42.650;23.248;2022-09-27T07:38:39;97.20;;;22.13;;
53040;SDS011;39326;42.650;23.248;2022-09-27T07:41:08;177.33;;;29.70;;
53040;SDS011;39326;42.650;23.248;2022-09-27T07:43:38;207.93;;;30.77;;
53040;SDS011;39326;42.650;23.248;2022-09-27T07:46:04;195.90;;;29.87;;
53040;SDS011;39326;42.650;23.248;2022-09-27T07:48:29;129.40;;;25.63;;
53040;SDS011;39326;42.650;23.248;2022-09-27T07:50:55;328.17;;;36.47;;
53040;SDS011;39326;42.650;23.248;2022-09-27T07:53:20;316.30;;;34.37;;
53040;SDS011;39326;42.650;23.248;2022-09-27T07:55:51;122.90;;;23.80;;
53040;SDS011;39326;42.650;23.248;2022-09-27T07:58:18;29.40;;;21.00;;
53040;SDS011;39326;42.650;23.248;2022-09-27T08:00:45;17.50;;;16.20;;
53040;SDS011;39326;42.650;23.248;2022-09-27T08:03:11;26.83;;;17.87;;
53040;SDS011;39326;42.650;23.248;2022-09-27T08:05:41;16.93;;;15.50;;
53040;SDS011;39326;42.650;23.248;2022-09-27T08:08:08;32.00;;;13.43;;
53040;SDS011;39326;42.650;23.248;2022-09-27T08:10:34;25.37;;;16.30;;
53040;SDS011;39326;42.650;23.248;2022-09-27T08:13:00;18.43;;;16.67;;
53040;SDS011;39326;42.650;23.248;2022-09-27T08:15:27;123.83;;;22.53;;
53040;SDS011;39326;42.650;23.248;2022-09-27T08:17:54;785.90;;;59.53;;
53040;SDS011;39326;42.650;23.248;2022-09-27T08:20:20;416.67;;;34.03;;
53040;SDS011;39326;42.650;23.248;2022-09-27T08:22:46;266.33;;;29.73;;
53040;SDS011;39326;42.650;23.248;2022-09-27T08:25:11;72.07;;;20.13;;
53040;SDS011;39326;42.650;23.248;2022-09-27T08:27:38;233.30;;;27.00;;
53040;SDS011;39326;42.650;23.248;2022-09-27T08:30:04;63.97;;;19.37;;
53040;SDS011;39326;42.650;23.248;2022-09-27T08:32:29;147.70;;;27.30;;
53040;SDS011;39326;42.650;23.248;2022-09-27T08:34:55;21.00;;;19.30;;
53040;SDS011;39326;42.650;23.248;2022-09-27T08:37:21;21.83;;;20.20;;
53040;SDS011;39326;42.650;23.248;2022-09-27T08:39:46;33.43;;;20.73;;
53040;SDS011;39326;42.650;23.248;2022-09-27T08:42:24;22.20;;;20.40;;
53040;SDS011;39326;42.650;23.248;2022-09-27T08:45:15;22.80;;;21.00;;
53040;SDS011;39326;42.650;23.248;2022-09-27T08:47:58;19.70;;;18.20;;
53040;SDS011;39326;42.650;23.248;2022-09-27T08:50:29;21.70;;;20.07;;
53040;SDS011;39326;42.650;23.248;2022-09-27T08:53:01;23.52;;;21.70;;
53040;SDS011;39326;42.650;23.248;2022-09-27T08:55:34;21.60;;;20.10;;
53040;SDS011;39326;42.650;23.248;2022-09-27T08:58:12;23.27;;;21.37;;
53040;SDS011;39326;42.650;23.248;2022-09-27T09:00:50;21.20;;;19.60;;
53040;SDS011;39326;42.650;23.248;2022-09-27T09:03:20;19.77;;;18.43;;
53040;SDS011;39326;42.650;23.248;2022-09-27T09:05:52;19.73;;;18.23;;
53040;SDS011;39326;42.650;23.248;2022-09-27T09:23:06;19.10;;;17.70;;
53040;SDS011;39326;42.650;23.248;2022-09-27T09:30:39;24.05;;;22.25;;
53040;SDS011;39326;42.650;23.248;2022-09-27T09:33:23;20.83;;;19.23;;
53040;SDS011;39326;42.650;23.248;2022-09-27T09:36:03;21.85;;;20.15;;
53040;SDS011;39326;42.650;23.248;2022-09-27T09:38:42;21.77;;;20.07;;
53040;SDS011;39326;42.650;23.248;2022-09-27T09:41:17;19.90;;;18.30;;
53040;SDS011;39326;42.650;23.248;2022-09-27T09:46:14;24.00;;;22.30;;
53040;SDS011;39326;42.650;23.248;2022-09-27T09:48:56;21.60;;;20.00;;
53040;SDS011;39326;42.650;23.248;2022-09-27T09:51:31;21.27;;;19.67;;
53040;SDS011;39326;42.650;23.248;2022-09-27T09:57:06;20.33;;;18.83;;
53040;SDS011;39326;42.650;23.248;2022-09-27T09:59:42;23.20;;;21.38;;
53040;SDS011;39326;42.650;23.248;2022-09-27T10:02:19;19.10;;;17.42;;
53040;SDS011;39326;42.650;23.248;2022-09-27T10:04:45;20.20;;;18.70;;
53040;SDS011;39326;42.650;23.248;2022-09-27T10:07:11;19.60;;;18.20;;
53040;SDS011;39326;42.650;23.248;2022-09-27T10:09:45;17.42;;;16.02;;
53040;SDS011;39326;42.650;23.248;2022-09-27T10:12:10;19.60;;;17.95;;
53040;SDS011;39326;42.650;23.248;2022-09-27T10:14:36;17.83;;;16.48;;
53040;SDS011;39326;42.650;23.248;2022-09-27T10:17:03;19.13;;;17.63;;
53040;SDS011;39326;42.650;23.248;2022-09-27T10:19:34;19.05;;;17.45;;
53040;SDS011;39326;42.650;23.248;2022-09-27T10:22:02;16.58;;;15.20;;
53040;SDS011;39326;42.650;23.248;2022-09-27T10:24:51;17.60;;;16.20;;
53040;SDS011;39326;42.650;23.248;2022-09-27T10:27:19;17.73;;;16.13;;
53040;SDS011;39326;42.650;23.248;2022-09-27T10:29:45;18.58;;;17.13;;
53040;SDS011;39326;42.650;23.248;2022-09-27T10:32:18;16.90;;;15.57;;
53040;SDS011;39326;42.650;23.248;2022-09-27T10:34:47;16.52;;;15.32;;
53040;SDS011;39326;42.650;23.248;2022-09-27T10:37:22;20.52;;;18.83;;
53040;SDS011;39326;42.650;23.248;2022-09-27T10:39:48;19.83;;;18.13;;
53040;SDS011;39326;42.650;23.248;2022-09-27T10:42:22;19.63;;;18.10;;
53040;SDS011;39326;42.650;23.248;2022-09-27T10:47:57;18.58;;;17.13;;
53040;SDS011;39326;42.650;23.248;2022-09-27T10:50:28;20.75;;;19.17;;
53040;SDS011;39326;42.650;23.248;2022-09-27T10:53:10;18.05;;;16.58;;
53040;SDS011;39326;42.650;23.248;2022-09-27T10:55:38;17.80;;;16.40;;
53040;SDS011;39326;42.650;23.248;2022-09-27T10:58:06;19.13;;;17.52;;
53040;SDS011;39326;42.650;23.248;2022-09-27T11:00:59;16.95;;;15.65;;
53040;SDS011;39326;42.650;23.248;2022-09-27T11:03:30;16.60;;;15.30;;
53040;SDS011;39326;42.650;23.248;2022-09-27T11:06:00;15.45;;;14.25;;
53040;SDS011;39326;42.650;23.248;2022-09-27T11:08:43;15.85;;;14.68;;
53040;SDS011;39326;42.650;23.248;2022-09-27T11:13:38;15.55;;;14.35;;
53040;SDS011;39326;42.650;23.248;2022-09-27T11:30:57;12.82;;;11.82;;
53040;SDS011;39326;42.650;23.248;2022-09-27T11:36:04;11.13;;;10.18;;
53040;SDS011;39326;42.650;23.248;2022-09-27T11:38:55;11.52;;;10.48;;
53040;SDS011;39326;42.650;23.248;2022-09-27T11:46:42;11.55;;;10.63;;
53040;SDS011;39326;42.650;23.248;2022-09-27T11:49:23;7.22;;;6.60;;
53040;SDS011;39326;42.650;23.248;2022-09-27T12:10:49;7.88;;;5.78;;
53040;SDS011;39326;42.650;23.248;2022-09-27T12:13:54;4.40;;;3.30;;
53040;SDS011;39326;42.650;23.248;2022-09-27T12:16:14;7.60;;;5.68;;
53040;SDS011;39326;42.650;23.248;2022-09-27T12:18:42;7.22;;;6.63;;
53040;SDS011;39326;42.650;23.248;2022-09-27T12:21:10;7.10;;;6.50;;
53040;SDS011;39326;42.650;23.248;2022-09-27T12:26:12;7.03;;;6.35;;
53040;SDS011;39326;42.650;23.248;2022-09-27T12:28:58;4.53;;;3.50;;
53040;SDS011;39326;42.650;23.248;2022-09-27T12:31:32;2.63;;;2.42;;
53040;SDS011;39326;42.650;23.248;2022-09-27T12:34:29;3.33;;;3.03;;
53040;SDS011;39326;42.650;23.248;2022-09-27T12:37:13;2.35;;;2.15;;
53040;SDS011;39326;42.650;23.248;2022-09-27T12:39:53;3.85;;;3.03;;
53040;SDS011;39326;42.650;23.248;2022-09-27T12:42:49;2.72;;;2.53;;
53040;SDS011;39326;42.650;23.248;2022-09-27T12:45:15;2.80;;;2.35;;
53040;SDS011;39326;42.650;23.248;2022-09-27T12:50:51;3.03;;;2.80;;
53040;SDS011;39326;42.650;23.248;2022-09-27T12:53:20;4.32;;;2.78;;
53040;SDS011;39326;42.650;23.248;2022-09-27T13:12:16;1.80;;;1.70;;
53040;SDS011;39326;42.650;23.248;2022-09-27T13:14:56;2.70;;;2.28;;
53040;SDS011;39326;42.650;23.248;2022-09-27T13:22:55;2.45;;;2.25;;
53040;SDS011;39326;42.650;23.248;2022-09-27T13:30:52;2.33;;;2.13;;
53040;SDS011;39326;42.650;23.248;2022-09-27T13:36:19;1.50;;;1.40;;
53040;SDS011;39326;42.650;23.248;2022-09-27T13:46:46;2.25;;;1.40;;
53040;SDS011;39326;42.650;23.248;2022-09-27T13:51:55;1.20;;;1.10;;
53040;SDS011;39326;42.650;23.248;2022-09-27T14:00:29;3.55;;;2.30;;
53040;SDS011;39326;42.650;23.248;2022-09-27T14:05:30;2.20;;;1.80;;
53040;SDS011;39326;42.650;23.248;2022-09-27T14:08:02;2.10;;;1.50;;
53040;SDS011;39326;42.650;23.248;2022-09-27T14:10:29;2.45;;;1.67;;
53040;SDS011;39326;42.650;23.248;2022-09-27T14:12:56;1.95;;;1.60;;
53040;SDS011;39326;42.650;23.248;2022-09-27T14:15:24;1.70;;;1.42;;
53040;SDS011;39326;42.650;23.248;2022-09-27T14:17:52;1.73;;;1.63;;
53040;SDS011;39326;42.650;23.248;2022-09-27T14:20:33;3.22;;;2.92;;
53040;SDS011;39326;42.650;23.248;2022-09-27T14:23:01;2.20;;;1.60;;
53040;SDS011;39326;42.650;23.248;2022-09-27T14:25:27;3.10;;;2.90;;
53040;SDS011;39326;42.650;23.248;2022-09-27T14:27:53;2.30;;;2.10;;
53040;SDS011;39326;42.650;23.248;2022-09-27T14:30:22;1.90;;;1.70;;
53040;SDS011;39326;42.650;23.248;2022-09-27T14:32:50;1.60;;;1.50;;
53040;SDS011;39326;42.650;23.248;2022-09-27T14:35:25;1.50;;;1.40;;
53040;SDS011;39326;42.650;23.248;2022-09-27T14:38:21;2.55;;;1.50;;
53040;SDS011;39326;42.650;23.248;2022-09-27T14:41:03;1.67;;;1.58;;
53040;SDS011;39326;42.650;23.248;2022-09-27T14:43:31;1.52;;;1.33;;
53040;SDS011;39326;42.650;23.248;2022-09-27T14:45:59;2.10;;;1.52;;
53040;SDS011;39326;42.650;23.248;2022-09-27T14:48:28;1.38;;;1.25;;
53040;SDS011;39326;42.650;23.248;2022-09-27T14:50:57;1.80;;;1.70;;
53040;SDS011;39326;42.650;23.248;2022-09-27T14:53:32;1.40;;;1.30;;
53040;SDS011;39326;42.650;23.248;2022-09-27T14:56:00;1.70;;;1.60;;
53040;SDS011;39326;42.650;23.248;2022-09-27T14:58:27;2.63;;;1.67;;
53040;SDS011;39326;42.650;23.248;2022-09-27T15:00:54;1.55;;;1.45;;
53040;SDS011;39326;42.650;23.248;2022-09-27T15:03:23;3.33;;;3.13;;
53040;SDS011;39326;42.650;23.248;2022-09-27T15:05:53;2.65;;;1.30;;
53040;SDS011;39326;42.650;23.248;2022-09-27T15:08:21;1.73;;;1.20;;
53040;SDS011;39326;42.650;23.248;2022-09-27T15:10:49;4.65;;;1.77;;
53040;SDS011;39326;42.650;23.248;2022-09-27T15:13:16;6.82;;;2.50;;
53040;SDS011;39326;42.650;23.248;2022-09-27T15:15:43;5.38;;;2.60;;
53040;SDS011;39326;42.650;23.248;2022-09-27T15:20:58;6.57;;;3.22;;
53040;SDS011;39326;42.650;23.248;2022-09-27T15:23:25;5.65;;;4.63;;
53040;SDS011;39326;42.650;23.248;2022-09-27T15:26:04;4.20;;;2.93;;
53040;SDS011;39326;42.650;23.248;2022-09-27T15:28:48;2.65;;;1.83;;
53040;SDS011;39326;42.650;23.248;2022-09-27T15:31:16;3.28;;;1.98;;
53040;SDS011;39326;42.650;23.248;2022-09-27T15:33:42;3.35;;;1.98;;
53040;SDS011;39326;42.650;23.248;2022-09-27T15:36:18;3.92;;;1.98;;
53040;SDS011;39326;42.650;23.248;2022-09-27T15:39:16;5.72;;;2.80;;
53040;SDS011;39326;42.650;23.248;2022-09-27T15:52:44;8.10;;;4.38;;
53040;SDS011;39326;42.650;23.248;2022-09-27T15:55:15;10.10;;;3.50;;
53040;SDS011;39326;42.650;23.248;2022-09-27T15:57:43;2.70;;;2.00;;
53040;SDS011;39326;42.650;23.248;2022-09-27T16:00:14;2.80;;;1.80;;
53040;SDS011;39326;42.650;23.248;2022-09-27T16:02:41;6.47;;;2.30;;
53040;SDS011;39326;42.650;23.248;2022-09-27T16:05:07;4.30;;;2.17;;
53040;SDS011;39326;42.650;23.248;2022-09-27T16:07:33;2.50;;;2.30;;
53040;SDS011;39326;42.650;23.248;2022-09-27T16:09:58;2.33;;;2.10;;
53040;SDS011;39326;42.650;23.248;2022-09-27T16:12:24;2.80;;;2.27;;
53040;SDS011;39326;42.650;23.248;2022-09-27T16:14:51;2.00;;;1.77;;
53040;SDS011;39326;42.650;23.248;2022-09-27T16:17:16;2.07;;;1.90;;
53040;SDS011;39326;42.650;23.248;2022-09-27T16:19:42;3.77;;;2.63;;
53040;SDS011;39326;42.650;23.248;2022-09-27T16:22:07;4.07;;;2.60;;
53040;SDS011;39326;42.650;23.248;2022-09-27T16:24:33;3.10;;;2.90;;
53040;SDS011;39326;42.650;23.248;2022-09-27T16:26:58;4.23;;;3.83;;
53040;SDS011;39326;42.650;23.248;2022-09-27T16:29:24;6.47;;;5.87;;
53040;SDS011;39326;42.650;23.248;2022-09-27T16:31:49;10.30;;;5.47;;
53040;SDS011;39326;42.650;23.248;2022-09-27T16:34:15;4.33;;;3.30;;
53040;SDS011;39326;42.650;23.248;2022-09-27T16:36:41;3.33;;;2.20;;
53040;SDS011;39326;42.650;23.248;2022-09-27T16:39:07;2.80;;;2.00;;
53040;SDS011;39326;42.650;23.248;2022-09-27T16:41:36;2.43;;;2.23;;
53040;SDS011;39326;42.650;23.248;2022-09-27T16:44:08;4.20;;;2.97;;
53040;SDS011;39326;42.650;23.248;2022-09-27T16:46:37;5.20;;;4.70;;
53040;SDS011;39326;42.650;23.248;2022-09-27T16:49:04;4.45;;;2.78;;
53040;SDS011;39326;42.650;23.248;2022-09-27T16:51:49;5.67;;;5.17;;
53040;SDS011;39326;42.650;23.248;2022-09-27T16:54:23;5.33;;;4.30;;
53040;SDS011;39326;42.650;23.248;2022-09-27T16:56:52;3.77;;;3.47;;
53040;SDS011;39326;42.650;23.248;2022-09-27T16:59:17;3.38;;;3.08;;
53040;SDS011;39326;42.650;23.248;2022-09-27T17:01:43;4.27;;;3.27;;
53040;SDS011;39326;42.650;23.248;2022-09-27T17:04:08;2.90;;;2.70;;
53040;SDS011;39326;42.650;23.248;2022-09-27T17:06:34;3.73;;;3.43;;
53040;SDS011;39326;42.650;23.248;2022-09-27T17:09:02;3.27;;;3.03;;
53040;SDS011;39326;42.650;23.248;2022-09-27T17:11:28;4.27;;;3.93;;
53040;SDS011;39326;42.650;23.248;2022-09-27T17:13:54;3.43;;;3.17;;
53040;SDS011;39326;42.650;23.248;2022-09-27T17:16:20;4.27;;;3.10;;
53040;SDS011;39326;42.650;23.248;2022-09-27T17:18:46;4.03;;;3.63;;
53040;SDS011;39326;42.650;23.248;2022-09-27T17:21:12;3.73;;;3.13;;
53040;SDS011;39326;42.650;23.248;2022-09-27T17:23:38;6.13;;;3.93;;
53040;SDS011;39326;42.650;23.248;2022-09-27T17:26:05;3.57;;;3.20;;
53040;SDS011;39326;42.650;23.248;2022-09-27T17:28:44;4.10;;;3.70;;
53040;SDS011;39326;42.650;23.248;2022-09-27T17:31:12;4.38;;;4.07;;
53040;SDS011;39326;42.650;23.248;2022-09-27T17:33:40;4.67;;;4.27;;
53040;SDS011;39326;42.650;23.248;2022-09-27T17:36:11;5.20;;;4.80;;
53040;SDS011;39326;42.650;23.248;2022-09-27T17:38:39;7.07;;;5.13;;
53040;SDS011;39326;42.650;23.248;2022-09-27T17:41:06;6.37;;;5.80;;
53040;SDS011;39326;42.650;23.248;2022-09-27T17:43:35;4.97;;;3.93;;
53040;SDS011;39326;42.650;23.248;2022-09-27T17:46:06;5.77;;;5.27;;
53040;SDS011;39326;42.650;23.248;2022-09-27T17:48:33;5.07;;;4.57;;
53040;SDS011;39326;42.650;23.248;2022-09-27T17:51:18;6.13;;;4.33;;
53040;SDS011;39326;42.650;23.248;2022-09-27T17:53:43;4.70;;;3.77;;